Time;durP1;ratioP1;P1;durP2;ratioP2;P2;SDS_P1;SDS_P2;PMS_P1;PMS_P2;Temp;Humidity;BMP_temperature;BMP_pressure;BME280_temperature;BME280_humidity;BME280_pressure;Samples;Min_cycle;Max_cycle;Signal;HPM_P1;HPM_P2
2023/09/10 00:01:38;;;;;;;12.65;3.80;;;;;;;18.09;45.16;95602.28;5039094;28;20040;-82
2023/09/10 00:04:04;;;;;;;10.35;4.00;;;;;;;18.20;45.59;95621.59;5055833;28;20547;-82
2023/09/10 00:06:30;;;;;;;8.20;3.88;;;;;;;17.76;45.46;95555.44;5056018;28;20036;-82
2023/09/10 00:20:05;;;;;;;9.82;4.70;;;;;;;17.08;45.69;95462.03;4645072;22;20053;-86
2023/09/10 00:22:31;;;;;;;9.05;4.15;;;;;;;17.80;46.01;95602.00;5060608;23;20498;-75
2023/09/10 00:24:57;;;;;;;11.02;4.20;;;;;;;17.83;46.29;95596.03;5049060;28;20098;-76
2023/09/10 00:27:22;;;;;;;9.18;3.92;;;;;;;17.92;46.64;95625.59;5020187;28;20068;-78
2023/09/10 00:29:49;;;;;;;14.57;3.90;;;;;;;17.80;46.92;95623.47;5039236;28;20050;-75
2023/09/10 00:32:14;;;;;;;13.93;5.03;;;;;;;17.88;46.86;95622.72;5040502;28;20035;-76
2023/09/10 00:34:40;;;;;;;10.18;4.30;;;;;;;17.67;46.46;95598.31;5041126;28;20097;-75
2023/09/10 00:37:05;;;;;;;9.05;4.05;;;;;;;18.02;46.98;95639.50;5015300;28;20037;-75
2023/09/10 00:39:31;;;;;;;11.57;4.55;;;;;;;17.90;47.06;95625.91;5029701;28;20471;-75
2023/09/10 00:41:56;;;;;;;11.07;4.38;;;;;;;17.90;46.91;95633.16;5012363;28;20395;-75
2023/09/10 00:44:23;;;;;;;16.67;4.70;;;;;;;17.73;47.49;95628.47;5030113;28;20692;-75
2023/09/10 00:46:51;;;;;;;8.95;4.13;;;;;;;17.80;47.44;95636.88;5013206;28;20033;-75
2023/09/10 00:49:16;;;;;;;11.55;4.20;;;;;;;17.83;47.76;95640.84;5011962;28;20069;-76
2023/09/10 00:51:43;;;;;;;11.82;3.90;;;;;;;17.77;47.82;95653.59;5029905;28;20150;-76
2023/09/10 00:54:08;;;;;;;6.90;3.92;;;;;;;17.55;47.99;95635.59;5012402;28;20085;-75
2023/09/10 00:56:34;;;;;;;6.45;4.10;;;;;;;17.56;48.22;95641.75;5030188;28;20057;-75
2023/09/10 00:58:59;;;;;;;6.35;3.75;;;;;;;17.68;48.37;95650.88;5012487;28;20126;-75
2023/09/10 01:01:26;;;;;;;9.30;4.00;;;;;;;17.64;48.16;95646.41;5030144;28;20096;-75
2023/09/10 01:03:51;;;;;;;9.30;3.90;;;;;;;17.42;48.32;95630.31;5011912;28;20477;-75
2023/09/10 01:06:17;;;;;;;8.75;4.35;;;;;;;17.36;48.44;95618.91;5012715;28;20034;-76
2023/09/10 01:08:43;;;;;;;7.13;3.53;;;;;;;17.52;48.64;95646.16;5030280;28;20489;-75
2023/09/10 01:11:12;;;;;;;7.68;3.65;;;;;;;17.61;48.56;95641.66;5012076;28;20041;-75
2023/09/10 01:13:58;;;;;;;10.38;3.65;;;;;;;17.45;48.95;95635.06;5011499;28;20053;-75
2023/09/10 01:16:41;;;;;;;7.13;3.47;;;;;;;17.26;49.43;95644.06;5033569;28;20041;-76
2023/09/10 01:19:32;;;;;;;7.90;4.00;;;;;;;17.21;49.32;95609.34;5033596;28;20068;-75
2023/09/10 01:22:09;;;;;;;;;;;;;;;17.37;49.31;95636.59;5031151;28;20107;-76
2023/09/10 01:24:48;;;;;;;11.18;4.28;;;;;;;17.44;49.29;95634.28;5034227;28;19924;-75
2023/09/10 01:27:17;;;;;;;10.45;3.92;;;;;;;17.32;49.03;95617.94;5015643;28;20034;-76
2023/09/10 01:29:43;;;;;;;12.23;3.75;;;;;;;17.24;48.98;95605.28;5033590;28;20042;-75
2023/09/10 01:32:16;;;;;;;12.75;3.90;;;;;;;17.28;49.30;95623.13;5033889;28;20037;-76
2023/09/10 01:34:48;;;;;;;8.38;4.05;;;;;;;17.13;49.09;95598.56;5016979;28;20095;-78
2023/09/10 01:37:21;;;;;;;14.45;3.90;;;;;;;17.34;48.99;95631.81;5034539;28;20033;-78
2023/09/10 01:39:50;;;;;;;11.40;4.35;;;;;;;17.40;48.94;95654.72;5016202;28;20673;-78
2023/09/10 01:42:16;;;;;;;6.65;3.90;;;;;;;17.22;49.28;95637.75;5016219;28;20423;-78
2023/09/10 01:44:44;;;;;;;14.48;3.50;;;;;;;17.33;49.37;95647.13;5017584;28;20029;-75
2023/09/10 01:47:10;;;;;;;10.10;4.03;;;;;;;17.36;49.19;95638.47;5015698;28;20037;-76
2023/09/10 01:49:37;;;;;;;10.98;3.78;;;;;;;17.42;48.84;95643.72;5015713;28;20040;-75
2023/09/10 01:52:03;;;;;;;9.98;4.30;;;;;;;17.07;49.28;95602.47;5014938;28;20041;-76
2023/09/10 01:54:28;;;;;;;13.02;4.88;;;;;;;17.25;49.21;95644.38;5014786;28;20414;-76
2023/09/10 01:56:54;;;;;;;10.15;4.22;;;;;;;17.20;48.63;95625.75;5014986;28;20431;-76
2023/09/10 01:59:19;;;;;;;11.00;4.03;;;;;;;17.21;48.33;95654.13;5015654;28;20044;-75
2023/09/10 02:01:44;;;;;;;10.73;3.97;;;;;;;17.28;48.49;95655.28;5033083;28;20040;-76
2023/09/10 02:04:10;;;;;;;18.08;4.28;;;;;;;17.26;48.17;95644.06;5033230;28;20045;-75
2023/09/10 02:06:36;;;;;;;9.98;3.33;;;;;;;17.17;47.95;95637.84;5032493;28;20040;-75
2023/09/10 02:09:02;;;;;;;7.47;3.17;;;;;;;17.22;46.80;95639.63;5033135;28;20548;-75
2023/09/10 02:11:27;;;;;;;6.40;3.28;;;;;;;17.14;47.35;95653.75;5014830;28;20049;-75
2023/09/10 02:13:53;;;;;;;5.90;3.17;;;;;;;17.08;47.65;95636.22;5014455;28;20183;-76
2023/09/10 02:16:19;;;;;;;11.20;3.35;;;;;;;17.25;47.48;95660.44;5014515;28;20037;-75
2023/09/10 02:18:44;;;;;;;11.85;3.35;;;;;;;17.18;47.43;95654.72;5015074;28;20479;-76
2023/09/10 02:21:11;;;;;;;10.07;3.53;;;;;;;17.28;47.40;95667.91;5015027;28;20119;-75
2023/09/10 02:23:38;;;;;;;9.25;3.75;;;;;;;17.22;48.04;95667.22;5014107;28;20086;-75
2023/09/10 02:26:04;;;;;;;18.75;4.70;;;;;;;17.17;48.01;95664.66;5032322;28;20108;-76
2023/09/10 02:28:29;;;;;;;12.13;3.67;;;;;;;17.20;48.39;95661.38;5031905;28;20093;-76
2023/09/10 02:30:54;;;;;;;7.03;3.45;;;;;;;17.12;48.57;95666.66;5032595;28;20041;-75
2023/09/10 02:33:20;;;;;;;6.65;3.42;;;;;;;16.96;49.27;95660.84;5014492;28;20041;-75
2023/09/10 02:35:46;;;;;;;7.88;3.15;;;;;;;17.05;49.36;95677.78;5031200;28;20043;-75
2023/09/10 02:38:11;;;;;;;10.95;4.28;;;;;;;16.88;49.34;95650.84;5032549;28;20034;-76
2023/09/10 02:40:37;;;;;;;9.93;3.28;;;;;;;16.73;49.50;95635.91;5032526;28;20525;-76
2023/09/10 02:43:02;;;;;;;10.13;3.47;;;;;;;16.91;49.57;95666.31;5013981;28;20047;-75
2023/09/10 02:45:28;;;;;;;10.55;3.50;;;;;;;16.80;49.82;95656.91;5031926;28;20411;-75
2023/09/10 02:47:53;;;;;;;7.22;3.35;;;;;;;16.56;49.68;95606.22;5029829;28;20037;-76
2023/09/10 02:50:19;;;;;;;8.73;3.70;;;;;;;16.79;49.43;95649.97;5032422;28;20219;-75
2023/09/10 02:52:44;;;;;;;11.75;3.55;;;;;;;16.84;50.21;95655.22;5014393;28;20095;-75
2023/09/10 02:55:10;;;;;;;8.80;4.00;;;;;;;16.79;50.33;95645.41;5035205;28;20112;-78
2023/09/10 02:57:35;;;;;;;6.25;3.20;;;;;;;16.64;50.59;95643.03;5056115;28;20077;-78
2023/09/10 03:00:00;;;;;;;9.40;3.72;;;;;;;16.67;50.64;95639.78;5038770;28;20105;-78
2023/09/10 03:02:26;;;;;;;7.82;3.42;;;;;;;16.63;50.53;95638.78;5056848;28;20033;-78
2023/09/10 03:04:51;;;;;;;8.88;3.30;;;;;;;16.52;50.92;95643.53;5056160;28;20458;-78
2023/09/10 03:07:17;;;;;;;12.50;3.80;;;;;;;16.41;51.25;95639.47;5039119;28;20148;-78
2023/09/10 03:09:42;;;;;;;7.80;3.67;;;;;;;16.31;51.12;95609.47;5037952;28;20052;-78
2023/09/10 03:12:28;;;;;;;6.55;3.85;;;;;;;16.40;51.65;95653.19;5038595;28;20044;-78
2023/09/10 03:14:54;;;;;;;11.27;3.65;;;;;;;16.37;52.22;95651.09;5056207;28;20033;-79
2023/09/10 03:17:21;;;;;;;6.07;3.50;;;;;;;16.04;52.45;95623.63;5079710;22;20060;-79
2023/09/10 03:19:47;;;;;;;7.95;3.53;;;;;;;16.08;52.46;95632.66;5045921;28;20332;-80
2023/09/10 03:22:13;;;;;;;8.43;3.80;;;;;;;16.16;52.71;95662.19;5063430;28;20025;-80
2023/09/10 03:24:39;;;;;;;8.75;3.78;;;;;;;16.19;52.42;95672.28;5062026;28;20033;-79
2023/09/10 03:27:04;;;;;;;7.75;3.40;;;;;;;15.62;52.32;95576.53;5045109;28;20029;-79
2023/09/10 03:29:34;;;;;;;10.25;3.75;;;;;;;16.03;52.57;95656.81;5063604;28;20064;-79
2023/09/10 03:32:00;;;;;;;9.93;3.65;;;;;;;16.02;52.74;95645.31;5063363;28;20408;-80
2023/09/10 03:34:26;;;;;;;11.55;3.97;;;;;;;15.69;52.22;95579.63;5045450;28;20067;-79
2023/09/10 03:36:51;;;;;;;11.10;3.47;;;;;;;16.11;52.17;95658.81;5063797;28;20048;-80
2023/09/10 03:39:16;;;;;;;10.02;3.88;;;;;;;16.11;51.45;95656.13;5063773;28;20395;-80
2023/09/10 03:41:42;;;;;;;6.53;3.80;;;;;;;16.06;51.49;95646.31;5064316;28;20028;-80
2023/09/10 03:44:07;;;;;;;10.52;3.88;;;;;;;16.09;51.63;95643.06;5063732;28;20037;-80
2023/09/10 03:46:33;;;;;;;10.13;3.45;;;;;;;16.17;51.50;95660.31;5046205;28;20060;-80
2023/09/10 03:48:58;;;;;;;12.18;3.80;;;;;;;16.23;51.96;95664.47;5062642;28;20037;-80
2023/09/10 03:51:27;;;;;;;9.27;4.32;;;;;;;16.14;51.98;95658.22;5062593;28;20475;-81
2023/09/10 03:53:52;;;;;;;13.18;4.60;;;;;;;16.08;52.21;95676.25;5063062;28;20504;-82
2023/09/10 03:56:17;;;;;;;10.07;3.97;;;;;;;16.13;52.17;95673.47;5063041;28;20064;-82
2023/09/10 03:58:43;;;;;;;16.02;4.50;;;;;;;16.08;52.39;95665.56;5063370;28;20025;-81
2023/09/10 04:01:08;;;;;;;7.07;3.50;;;;;;;15.83;52.93;95658.78;5062301;28;20037;-81
2023/09/10 04:03:33;;;;;;;11.15;4.18;;;;;;;16.03;53.04;95688.91;5044155;28;20029;-82
2023/09/10 04:05:59;;;;;;;8.75;4.10;;;;;;;15.88;52.98;95670.47;5062454;28;20037;-82
2023/09/10 04:08:24;;;;;;;12.50;4.35;;;;;;;15.50;53.74;95649.16;5045093;28;20033;-82
2023/09/10 04:10:50;;;;;;;17.95;4.53;;;;;;;15.80;53.92;95691.44;5045582;28;20059;-82
2023/09/10 04:13:15;;;;;;;9.02;3.67;;;;;;;15.66;53.47;95661.22;5063274;28;20041;-83
2023/09/10 04:15:41;;;;;;;13.60;4.07;;;;;;;15.60;53.43;95648.22;5044406;28;20033;-83
2023/09/10 04:18:07;;;;;;;13.10;4.30;;;;;;;16.00;53.00;95701.00;5062173;28;20082;-83
2023/09/10 04:20:33;;;;;;;12.45;3.78;;;;;;;15.75;53.08;95651.44;5062163;28;20471;-82
2023/09/10 04:22:58;;;;;;;11.00;3.67;;;;;;;15.77;53.14;95667.19;5063013;28;20033;-83
2023/09/10 04:25:24;;;;;;;8.40;3.70;;;;;;;15.92;53.12;95699.00;5062491;28;20038;-82
2023/09/10 04:27:49;;;;;;;7.72;3.85;;;;;;;15.59;53.39;95674.16;5063868;28;20032;-83
2023/09/10 04:30:15;;;;;;;11.80;4.10;;;;;;;15.72;53.49;95684.09;5045206;28;20025;-83
2023/09/10 04:32:40;;;;;;;14.05;4.85;;;;;;;15.64;53.30;95649.25;5044858;28;20046;-83
2023/09/10 04:35:06;;;;;;;8.63;3.70;;;;;;;15.87;52.75;95675.00;5062967;28;20033;-82
2023/09/10 04:37:32;;;;;;;16.13;4.50;;;;;;;16.10;52.89;95700.81;5063323;28;20051;-82
2023/09/10 04:39:58;;;;;;;15.65;4.57;;;;;;;15.40;52.59;95587.88;5062826;28;20025;-83
2023/09/10 04:42:23;;;;;;;9.60;4.47;;;;;;;16.12;52.80;95693.28;5062730;28;20112;-82
2023/09/10 04:44:49;;;;;;;14.23;4.50;;;;;;;16.02;52.30;95682.00;5063569;28;20032;-83
2023/09/10 04:47:15;;;;;;;11.95;4.10;;;;;;;16.16;52.09;95694.31;5045610;28;20101;-82
2023/09/10 04:49:41;;;;;;;17.70;4.38;;;;;;;16.33;51.07;95701.72;5066933;28;20041;-83
2023/09/10 04:52:06;;;;;;;11.63;4.13;;;;;;;16.14;51.31;95672.38;5066174;28;20037;-83
2023/09/10 04:54:31;;;;;;;10.75;4.45;;;;;;;15.91;50.46;95633.22;5068790;28;20035;-82
2023/09/10 04:56:57;;;;;;;16.20;5.20;;;;;;;16.01;50.76;95689.22;5067898;28;20029;-82
2023/09/10 04:59:22;;;;;;;15.07;4.13;;;;;;;16.02;50.05;95665.94;5049892;28;20088;-83
2023/09/10 05:01:48;;;;;;;5.15;3.30;;;;;;;16.31;49.46;95703.94;5067487;28;20096;-82
2023/09/10 05:04:14;;;;;;;8.82;4.00;;;;;;;16.10;49.52;95689.31;5050862;28;20337;-82
2023/09/10 05:06:39;;;;;;;11.18;3.65;;;;;;;16.16;49.65;95710.34;5067872;28;20029;-83
2023/09/10 05:09:05;;;;;;;19.98;3.95;;;;;;;16.07;49.40;95685.38;5067136;28;20039;-82
2023/09/10 05:11:30;;;;;;;7.18;3.65;;;;;;;16.15;49.04;95691.91;5049423;28;20097;-82
2023/09/10 05:13:55;;;;;;;8.23;3.88;;;;;;;16.45;48.85;95701.25;5067120;28;20052;-83
2023/09/10 05:16:21;;;;;;;12.95;3.70;;;;;;;16.32;48.51;95692.13;5066742;28;20059;-82
2023/09/10 05:18:47;;;;;;;9.25;3.22;;;;;;;16.01;48.78;95653.66;5048317;28;20124;-80
2023/09/10 05:21:13;;;;;;;11.35;3.75;;;;;;;16.09;48.61;95647.63;5047699;28;20040;-81
2023/09/10 05:23:39;;;;;;;10.25;3.65;;;;;;;16.51;48.22;95716.91;5048233;28;20025;-81
2023/09/10 05:26:05;;;;;;;9.45;3.97;;;;;;;16.36;47.84;95658.31;5066419;28;20025;-80
2023/09/10 05:28:30;;;;;;;7.13;3.00;;;;;;;16.32;48.20;95665.38;5066215;28;20132;-80
2023/09/10 05:30:56;;;;;;;13.13;3.30;;;;;;;16.59;48.13;95726.94;5067082;28;20033;-81
2023/09/10 05:33:21;;;;;;;6.28;2.97;;;;;;;16.67;47.88;95712.09;5066238;28;20033;-81
2023/09/10 05:35:54;;;;;;;12.52;3.65;;;;;;;16.90;47.76;95726.34;5066136;28;20101;-81
2023/09/10 05:38:19;;;;;;;16.42;4.43;;;;;;;16.68;47.85;95727.06;5047797;28;20033;-80
2023/09/10 05:40:45;;;;;;;7.75;3.70;;;;;;;16.93;47.59;95739.16;5047689;28;20029;-80
2023/09/10 05:43:10;;;;;;;8.82;3.95;;;;;;;16.84;47.57;95738.28;5048928;28;20101;-81
2023/09/10 05:45:36;;;;;;;10.23;4.28;;;;;;;16.87;47.47;95732.28;5066117;28;20043;-81
2023/09/10 05:48:01;;;;;;;14.05;4.35;;;;;;;16.82;47.49;95724.38;5066128;28;20041;-80
2023/09/10 05:50:27;;;;;;;11.38;4.68;;;;;;;16.90;47.45;95710.28;5065594;28;20040;-80
2023/09/10 05:52:55;;;;;;;9.65;4.35;;;;;;;17.00;47.79;95728.03;5048949;28;20509;-80
2023/09/10 05:55:24;;;;;;;9.73;4.30;;;;;;;16.88;47.49;95694.50;5048533;28;20043;-80
2023/09/10 05:57:53;;;;;;;10.80;3.78;;;;;;;16.96;47.36;95696.47;5048710;28;20071;-80
2023/09/10 06:00:19;;;;;;;13.38;4.03;;;;;;;17.11;47.11;95700.69;5065235;28;20039;-80
2023/09/10 06:02:45;;;;;;;7.45;3.83;;;;;;;17.25;46.79;95720.22;5067023;28;20037;-80
2023/09/10 06:05:11;;;;;;;14.07;4.10;;;;;;;17.25;46.83;95725.56;5048854;28;20029;-81
2023/09/10 06:07:36;;;;;;;9.43;4.28;;;;;;;17.18;46.46;95684.19;5066108;28;20071;-81
2023/09/10 06:10:06;;;;;;;13.20;4.18;;;;;;;16.74;46.38;95615.25;5066570;28;20033;-80
2023/09/10 06:12:31;;;;;;;12.15;4.25;;;;;;;17.44;46.02;95719.28;5067092;28;20520;-82
2023/09/10 06:14:57;;;;;;;17.38;4.40;;;;;;;17.39;46.48;95730.13;5067397;28;20044;-82
2023/09/10 06:17:22;;;;;;;15.35;4.13;;;;;;;17.33;46.34;95713.34;5049218;28;20049;-83
2023/09/10 06:19:51;;;;;;;11.52;4.03;;;;;;;17.32;46.07;95693.78;5066576;28;20032;-83
2023/09/10 06:22:16;;;;;;;9.05;4.00;;;;;;;17.63;46.40;95739.50;5049708;28;20025;-82
2023/09/10 06:24:42;;;;;;;14.48;4.15;;;;;;;17.28;46.14;95679.41;5050066;28;20068;-82
2023/09/10 06:27:07;;;;;;;15.73;4.90;;;;;;;17.68;46.11;95743.97;5048894;28;20029;-82
2023/09/10 06:29:33;;;;;;;11.35;4.03;;;;;;;17.64;46.31;95738.41;5065704;28;20036;-82
2023/09/10 06:31:58;;;;;;;6.40;3.85;;;;;;;17.65;46.23;95734.63;5065859;28;20033;-82
2023/09/10 06:34:24;;;;;;;8.13;3.80;;;;;;;17.78;45.87;95732.16;5064956;28;20040;-82
2023/09/10 06:36:49;;;;;;;11.18;3.30;;;;;;;17.79;45.79;95717.66;5065883;28;20032;-82
2023/09/10 06:39:15;;;;;;;11.52;4.60;;;;;;;17.83;45.84;95707.91;5073495;22;20088;-75
2023/09/10 06:41:40;;;;;;;14.63;4.93;;;;;;;18.09;45.27;95733.00;5044171;28;20045;-75
2023/09/10 06:44:06;;;;;;;9.20;4.45;;;;;;;17.94;45.23;95709.25;5025007;28;20360;-77
2023/09/10 06:46:31;;;;;;;9.05;4.03;;;;;;;18.15;45.11;95733.69;5044038;28;20033;-76
2023/09/10 06:48:56;;;;;;;10.52;3.88;;;;;;;18.23;44.78;95736.44;5042153;28;20043;-76
2023/09/10 06:51:22;;;;;;;12.40;4.72;;;;;;;18.15;44.80;95725.63;5024563;28;20040;-76
2023/09/10 06:53:47;;;;;;;9.40;3.67;;;;;;;18.03;44.12;95715.44;5041981;28;20068;-76
2023/09/10 06:56:13;;;;;;;11.85;3.88;;;;;;;18.27;44.31;95734.69;5025014;28;20037;-77
2023/09/10 06:58:38;;;;;;;14.18;4.63;;;;;;;18.20;44.21;95728.97;5022706;28;20045;-75
2023/09/10 07:01:08;;;;;;;8.50;3.88;;;;;;;18.28;43.64;95719.38;5003534;28;20040;-76
2023/09/10 07:03:34;;;;;;;9.77;4.57;;;;;;;18.28;43.50;95709.44;5003001;28;20041;-75
2023/09/10 07:06:03;;;;;;;10.07;4.40;;;;;;;18.58;43.41;95732.03;5005371;28;20069;-76
2023/09/10 07:08:28;;;;;;;7.90;3.58;;;;;;;18.62;43.40;95734.88;5022679;28;20054;-76
2023/09/10 07:10:54;;;;;;;11.35;3.50;;;;;;;18.57;42.94;95743.06;5021036;28;20034;-75
2023/09/10 07:13:19;;;;;;;12.20;4.13;;;;;;;18.61;42.74;95728.72;5021480;28;20440;-75
2023/09/10 07:15:45;;;;;;;9.77;3.55;;;;;;;18.82;42.37;95735.13;5021074;28;20037;-75
2023/09/10 07:18:10;;;;;;;8.50;3.28;;;;;;;18.88;42.09;95743.81;5021606;28;20068;-75
2023/09/10 07:20:35;;;;;;;12.68;3.90;;;;;;;18.85;41.83;95739.84;5004246;28;20025;-76
2023/09/10 07:23:01;;;;;;;11.00;3.60;;;;;;;18.78;41.66;95722.59;5004543;28;20034;-76
2023/09/10 07:25:26;;;;;;;10.27;3.47;;;;;;;18.96;41.44;95729.59;5021316;28;20065;-75
2023/09/10 07:27:51;;;;;;;16.17;3.90;;;;;;;19.04;41.21;95718.09;5021512;28;20042;-77
2023/09/10 07:30:17;;;;;;;8.82;3.53;;;;;;;19.02;41.09;95700.69;5020506;28;20037;-75
2023/09/10 07:32:42;;;;;;;11.50;3.65;;;;;;;19.16;41.14;95720.94;5019807;28;20038;-76
2023/09/10 07:35:08;;;;;;;9.88;3.95;;;;;;;19.13;41.21;95724.28;5020879;28;20037;-75
2023/09/10 07:37:34;;;;;;;8.18;3.60;;;;;;;19.21;41.12;95723.50;5019440;28;20170;-76
2023/09/10 07:39:59;;;;;;;18.65;3.80;;;;;;;19.27;41.12;95724.13;5004133;28;20042;-76
2023/09/10 07:42:24;;;;;;;12.20;3.30;;;;;;;19.32;40.76;95715.91;5004117;28;20038;-76
2023/09/10 07:44:50;;;;;;;10.98;3.58;;;;;;;19.47;40.64;95726.22;5021692;28;20099;-77
2023/09/10 07:47:15;;;;;;;9.43;3.40;;;;;;;19.49;40.70;95702.50;5020280;28;20753;-76
2023/09/10 07:49:41;;;;;;;12.80;3.42;;;;;;;19.49;40.32;95686.34;5022288;28;20113;-76
2023/09/10 07:52:06;;;;;;;8.38;3.40;;;;;;;19.77;39.95;95712.91;5002232;28;20065;-76
2023/09/10 07:54:32;;;;;;;9.23;3.33;;;;;;;19.68;40.34;95696.81;5003880;28;20030;-76
2023/09/10 07:56:57;;;;;;;14.90;3.97;;;;;;;19.84;39.56;95707.84;5020454;28;20384;-76
2023/09/10 07:59:23;;;;;;;6.03;3.58;;;;;;;19.89;39.60;95708.47;5019785;28;20060;-76
2023/09/10 08:01:49;;;;;;;13.50;3.95;;;;;;;19.92;39.07;95709.72;5003551;28;20061;-76
2023/09/10 08:04:15;;;;;;;8.18;3.30;;;;;;;19.86;38.86;95667.94;5002888;28;20090;-75
2023/09/10 08:06:40;;;;;;;10.05;3.63;;;;;;;20.13;39.26;95699.88;5000608;28;20099;-76
2023/09/10 08:09:06;;;;;;;14.40;3.13;;;;;;;20.07;38.81;95668.81;5019215;28;20053;-76
2023/09/10 08:11:32;;;;;;;12.93;3.70;;;;;;;20.41;39.03;95705.66;5019081;28;20042;-76
2023/09/10 08:13:57;;;;;;;8.98;4.03;;;;;;;20.12;39.03;95651.72;5018437;28;20091;-76
2023/09/10 08:16:23;;;;;;;8.77;3.85;;;;;;;20.57;38.58;95708.63;5017705;28;20112;-76
2023/09/10 08:18:48;;;;;;;17.20;4.82;;;;;;;20.47;38.25;95685.50;5001236;28;20045;-76
2023/09/10 08:21:14;;;;;;;12.18;4.07;;;;;;;20.21;38.62;95636.34;5000890;28;20488;-75
2023/09/10 08:23:39;;;;;;;9.73;3.65;;;;;;;20.43;38.70;95652.25;5017471;28;20048;-75
2023/09/10 08:26:05;;;;;;;8.07;4.18;;;;;;;20.64;38.11;95666.56;5021366;28;20085;-74
2023/09/10 08:28:30;;;;;;;9.93;3.85;;;;;;;20.88;37.91;95684.06;5019116;28;20042;-73
2023/09/10 08:30:56;;;;;;;13.30;4.10;;;;;;;21.02;37.90;95692.69;5001437;28;20105;-74
2023/09/10 08:33:24;;;;;;;12.07;4.00;;;;;;;21.06;37.54;95693.59;5020332;28;20040;-74
2023/09/10 08:35:51;;;;;;;14.75;4.32;;;;;;;20.95;37.66;95685.13;5021084;28;20042;-74
2023/09/10 08:38:17;;;;;;;9.00;3.85;;;;;;;21.09;37.08;95688.34;5019506;28;20030;-74
2023/09/10 08:40:54;;;;;;;9.27;3.50;;;;;;;21.27;37.06;95690.97;5017280;28;20037;-74
2023/09/10 08:43:29;;;;;;;10.45;3.47;;;;;;;21.18;37.32;95664.84;5001337;28;20044;-75
2023/09/10 08:45:54;;;;;;;9.88;3.25;;;;;;;21.41;37.25;95686.09;5015551;28;20046;-76
2023/09/10 08:48:20;;;;;;;10.38;3.35;;;;;;;21.30;37.37;95653.31;5011142;28;20095;-77
2023/09/10 08:50:46;;;;;;;8.48;3.50;;;;;;;21.42;37.29;95655.28;5011528;28;20034;-77
2023/09/10 08:53:14;;;;;;;10.07;3.38;;;;;;;21.56;37.52;95667.38;4993376;28;20057;-76
2023/09/10 08:55:44;;;;;;;11.95;3.78;;;;;;;21.77;37.42;95686.25;5011007;28;20139;-74
2023/09/10 08:58:13;;;;;;;11.50;3.58;;;;;;;21.86;37.84;95681.56;5010558;28;20504;-76
2023/09/10 09:00:40;;;;;;;6.22;3.20;;;;;;;21.94;37.56;95694.19;5010502;28;20030;-76
2023/09/10 09:03:06;;;;;;;9.45;3.60;;;;;;;22.00;37.36;95688.59;4993031;28;20124;-76
2023/09/10 09:05:34;;;;;;;8.13;3.65;;;;;;;22.10;36.97;95682.78;4992764;28;20081;-76
2023/09/10 09:08:10;;;;;;;7.13;3.50;;;;;;;22.11;36.46;95678.97;5008611;28;20387;-76
2023/09/10 09:10:36;;;;;;;7.18;3.40;;;;;;;21.90;36.91;95639.25;5010313;28;20030;-76
2023/09/10 09:13:07;;;;;;;10.93;4.00;;;;;;;22.26;37.55;95689.91;4992460;28;20540;-76
2023/09/10 09:15:33;;;;;;;;;;;;;;;22.34;37.30;95680.13;4992710;28;20048;-74
2023/09/10 09:18:00;;;;;;;9.95;3.90;;;;;;;22.36;36.67;95672.44;5010152;28;20375;-74
2023/09/10 09:20:26;;;;;;;8.45;4.00;;;;;;;22.53;37.16;95676.88;4992460;28;20044;-76
2023/09/10 09:22:58;;;;;;;17.60;4.93;;;;;;;22.38;37.01;95648.59;4992714;28;20033;-76
2023/09/10 09:25:24;;;;;;;9.85;3.88;;;;;;;22.63;36.83;95679.91;4992443;28;20034;-76
2023/09/10 09:27:51;;;;;;;8.43;3.92;;;;;;;22.63;36.55;95669.09;4992341;28;20053;-76
2023/09/10 09:30:16;;;;;;;8.77;4.28;;;;;;;22.73;36.61;95669.78;5010220;28;20168;-76
2023/09/10 09:32:45;;;;;;;7.63;3.72;;;;;;;22.81;36.77;95671.63;5008415;28;20516;-76
2023/09/10 09:35:11;;;;;;;8.40;3.45;;;;;;;22.68;36.37;95663.47;4992820;28;20549;-76
2023/09/10 09:37:36;;;;;;;8.90;3.85;;;;;;;22.79;36.18;95668.47;4995792;28;20044;-76
2023/09/10 09:40:09;;;;;;;13.27;3.80;;;;;;;22.93;36.47;95664.28;4996358;28;20045;-76
2023/09/10 09:42:36;;;;;;;6.30;3.88;;;;;;;23.03;36.47;95669.22;4996142;28;20121;-76
2023/09/10 09:45:03;;;;;;;7.00;3.97;;;;;;;23.06;36.16;95673.94;4995922;28;20038;-76
2023/09/10 09:47:30;;;;;;;9.98;3.95;;;;;;;23.01;35.76;95657.16;4995934;28;20041;-76
2023/09/10 09:49:56;;;;;;;9.60;4.03;;;;;;;22.83;36.22;95621.47;5013428;28;20538;-76
2023/09/10 09:52:21;;;;;;;11.95;3.85;;;;;;;23.01;36.56;95628.19;5013563;28;20103;-76
2023/09/10 09:54:48;;;;;;;7.25;4.10;;;;;;;23.14;37.08;95630.88;4995721;28;20038;-76
2023/09/10 09:57:13;;;;;;;10.60;4.32;;;;;;;23.76;36.02;95643.88;5015259;28;20037;-76
2023/09/10 09:59:39;;;;;;;13.95;4.50;;;;;;;24.50;34.87;95648.50;4995586;28;20033;-76
2023/09/10 10:02:04;;;;;;;8.13;3.90;;;;;;;25.34;32.98;95646.16;5013737;28;20037;-76
2023/09/10 10:04:33;;;;;;;6.05;3.65;;;;;;;26.23;31.84;95633.53;4996108;28;20421;-77
2023/09/10 10:07:01;;;;;;;10.73;4.25;;;;;;;27.22;30.81;95640.56;4996119;28;20034;-77
2023/09/10 10:09:37;;;;;;;9.90;4.15;;;;;;;28.13;29.35;95625.69;5024096;28;20415;-76
2023/09/10 10:12:04;;;;;;;16.02;3.97;;;;;;;28.90;28.20;95628.31;5032826;28;20099;-75
2023/09/10 10:14:34;;;;;;;6.25;3.60;;;;;;;29.63;27.10;95620.91;5033235;28;20041;-75
2023/09/10 10:17:01;;;;;;;8.88;4.20;;;;;;;30.19;26.51;95627.72;5032885;28;20091;-74
2023/09/10 10:19:30;;;;;;;9.50;4.03;;;;;;;30.50;26.06;95596.09;5014504;28;20501;-74
2023/09/10 10:21:56;;;;;;;13.65;4.28;;;;;;;31.12;24.91;95606.63;5032273;28;20423;-74
2023/09/10 10:24:22;;;;;;;12.77;3.60;;;;;;;31.56;24.80;95617.84;5032285;28;20044;-75
2023/09/10 10:26:49;;;;;;;8.85;3.45;;;;;;;31.50;24.50;95602.97;5014163;28;20037;-77
2023/09/10 10:29:17;;;;;;;17.17;4.18;;;;;;;31.92;24.09;95614.94;5030949;28;20033;-77
2023/09/10 10:31:47;;;;;;;7.80;3.35;;;;;;;31.90;23.47;95604.34;5032470;28;20487;-77
2023/09/10 10:34:27;;;;;;;5.53;3.65;;;;;;;31.91;23.15;95597.69;5033022;28;20322;-77
2023/09/10 10:37:15;;;;;;;13.38;4.20;;;;;;;31.95;23.74;95612.19;5014149;28;20041;-77
2023/09/10 10:40:05;;;;;;;10.80;3.58;;;;;;;31.96;23.23;95580.84;5031902;28;20045;-77
2023/09/10 10:43:07;;;;;;;9.98;3.75;;;;;;;32.47;22.67;95604.00;5015131;28;20090;-77
2023/09/10 10:45:33;;;;;;;8.20;3.60;;;;;;;32.53;22.31;95605.13;5001985;28;20499;-77
2023/09/10 10:48:28;;;;;;;8.05;3.55;;;;;;;32.30;22.91;95602.19;5032334;28;20041;-77
2023/09/10 10:50:57;;;;;;;10.70;3.83;;;;;;;32.23;23.42;95591.25;5030804;28;20080;-76
2023/09/10 10:53:26;;;;;;;8.27;3.40;;;;;;;31.70;22.76;95590.38;5014377;28;20120;-77
2023/09/10 10:55:56;;;;;;;13.52;3.70;;;;;;;32.05;22.94;95585.84;5032517;28;20514;-77
2023/09/10 10:58:23;;;;;;;7.65;3.55;;;;;;;32.16;23.30;95573.66;5014355;28;20033;-77
2023/09/10 11:00:50;;;;;;;11.27;3.30;;;;;;;32.47;22.62;95593.03;5013970;28;20501;-75
2023/09/10 11:03:16;;;;;;;8.23;3.38;;;;;;;32.25;21.83;95551.25;5031137;28;20456;-75
2023/09/10 11:05:54;;;;;;;9.90;4.07;;;;;;;32.33;22.50;95582.97;5032035;28;20384;-77
2023/09/10 11:08:33;;;;;;;9.38;3.38;;;;;;;32.65;22.43;95570.94;5015167;28;20037;-77
2023/09/10 11:11:01;;;;;;;8.38;3.20;;;;;;;32.77;22.82;95582.22;5014454;28;20048;-77
2023/09/10 11:13:26;;;;;;;7.60;3.40;;;;;;;32.72;22.30;95529.69;5033170;28;20095;-77
2023/09/10 11:16:16;;;;;;;6.80;3.50;;;;;;;33.30;22.04;95575.41;5024302;28;20092;-77
2023/09/10 11:18:41;;;;;;;9.63;3.65;;;;;;;33.32;21.81;95560.06;5028258;28;20042;-77
2023/09/10 11:21:11;;;;;;;7.25;3.22;;;;;;;33.29;21.58;95574.63;5035593;28;20056;-78
2023/09/10 11:23:56;;;;;;;9.07;3.80;;;;;;;33.18;21.23;95568.44;5050765;28;20036;-80
2023/09/10 11:26:22;;;;;;;7.03;3.95;;;;;;;33.06;21.55;95571.69;5004956;28;20037;-79
2023/09/10 11:28:52;;;;;;;12.45;4.05;;;;;;;33.11;21.93;95563.00;5053196;28;20043;-80
2023/09/10 11:31:46;;;;;;;7.10;3.80;;;;;;;33.24;21.64;95561.34;5037198;28;20291;-80
2023/09/10 11:34:15;;;;;;;5.45;3.55;;;;;;;33.30;21.56;95561.66;5048476;28;20071;-80
2023/09/10 11:36:42;;;;;;;12.40;4.18;;;;;;;33.49;21.64;95558.25;5035839;28;20065;-80
2023/09/10 11:39:08;;;;;;;8.52;4.15;;;;;;;33.46;21.50;95544.56;5035226;28;20046;-77
2023/09/10 11:41:34;;;;;;;11.10;3.95;;;;;;;32.88;22.58;95538.91;5053624;28;20041;-79